createdAt,value
2019-02-12T00:00:22.068Z,1.10
2019-02-12T00:03:10.098Z,1.10
2019-02-12T00:05:58.178Z,1.10
2019-02-12T00:08:45.829Z,1.10
2019-02-12T00:11:33.087Z,1.10
2019-02-12T00:14:20.147Z,1.00
2019-02-12T00:17:07.923Z,1.00
2019-02-12T00:19:55.559Z,0.90
2019-02-12T00:22:43.459Z,0.70
2019-02-12T00:25:30.815Z,0.80
2019-02-12T00:28:17.922Z,0.80
2019-02-12T00:31:05.450Z,0.70
2019-02-12T00:33:52.506Z,0.60
2019-02-12T00:36:39.759Z,0.60
2019-02-12T00:39:26.987Z,0.60
2019-02-12T00:42:14.636Z,0.60
2019-02-12T00:45:01.999Z,0.50
2019-02-12T00:47:49.300Z,0.60
2019-02-12T00:50:36.890Z,0.70
2019-02-12T00:53:24.457Z,0.60
2019-02-12T00:56:12.053Z,0.60
2019-02-12T00:58:59.593Z,0.40
2019-02-12T01:01:46.633Z,0.40
2019-02-12T01:04:33.951Z,0.40
2019-02-12T01:07:21.972Z,0.30
2019-02-12T01:10:10.136Z,0.20
2019-02-12T01:12:57.769Z,0.20
2019-02-12T01:15:45.417Z,0.20
2019-02-12T01:18:32.438Z,0.20
2019-02-12T01:21:26.095Z,0.10
2019-02-12T01:24:10.051Z,0.00
2019-02-12T01:26:57.744Z,0.00
2019-02-12T01:29:45.361Z,0.10
2019-02-12T01:32:32.692Z,0.20
2019-02-12T01:35:19.751Z,0.40
2019-02-12T01:38:07.426Z,0.40
2019-02-12T01:40:54.985Z,0.50
2019-02-12T01:43:42.315Z,0.60
2019-02-12T01:46:29.963Z,0.60
2019-02-12T01:49:17.096Z,0.80
2019-02-12T01:52:04.733Z,0.90
2019-02-12T01:54:52.274Z,1.00
2019-02-12T01:57:40.006Z,1.00
2019-02-12T02:00:27.787Z,1.00
2019-02-12T02:03:15.038Z,1.10
2019-02-12T02:06:02.931Z,1.00
2019-02-12T02:08:50.448Z,1.00
2019-02-12T02:11:37.747Z,1.10
2019-02-12T02:14:25.108Z,1.10
2019-02-12T02:17:12.410Z,1.10
2019-02-12T02:19:59.904Z,1.10
2019-02-12T02:22:47.237Z,1.10
2019-02-12T02:25:35.267Z,1.00
2019-02-12T02:28:22.964Z,1.10
2019-02-12T02:31:10.921Z,1.10
2019-02-12T02:33:58.162Z,1.10
2019-02-12T02:36:45.763Z,1.20
2019-02-12T02:39:33.496Z,1.20
2019-02-12T02:42:20.935Z,1.20
2019-02-12T02:45:09.246Z,1.20
2019-02-12T02:47:56.564Z,1.30
2019-02-12T02:50:44.190Z,1.20
2019-02-12T02:53:31.558Z,1.30
2019-02-12T02:56:19.237Z,1.30
2019-02-12T02:59:06.661Z,1.30
2019-02-12T03:01:54.164Z,1.40
2019-02-12T03:04:42.040Z,1.40
2019-02-12T03:07:30.302Z,1.40
2019-02-12T03:10:18.094Z,1.50
2019-02-12T03:13:05.356Z,1.50
2019-02-12T03:15:52.956Z,1.50
2019-02-12T03:18:40.467Z,1.60
2019-02-12T03:21:27.979Z,1.70
2019-02-12T03:24:15.629Z,1.80
2019-02-12T03:27:03.003Z,1.90
2019-02-12T03:29:50.227Z,2.00
2019-02-12T03:32:37.612Z,2.10
2019-02-12T03:35:25.270Z,2.20
2019-02-12T03:38:12.998Z,2.30
2019-02-12T03:41:00.748Z,2.30
2019-02-12T03:43:47.873Z,2.40
2019-02-12T03:46:34.944Z,2.50
2019-02-12T03:49:22.694Z,2.60
2019-02-12T03:52:12.884Z,2.50
2019-02-12T03:54:59.768Z,2.60
2019-02-12T03:57:47.719Z,2.60
2019-02-12T04:00:35.459Z,2.60
2019-02-12T04:03:23.170Z,2.70
2019-02-12T04:06:10.429Z,2.60
2019-02-12T04:08:57.989Z,2.70
2019-02-12T04:11:45.563Z,2.60
2019-02-12T04:14:33.137Z,2.60
2019-02-12T04:17:20.967Z,2.60
2019-02-12T04:20:08.474Z,2.50
2019-02-12T04:22:56.533Z,2.50
2019-02-12T04:25:43.974Z,2.50
2019-02-12T04:28:35.646Z,2.60
2019-02-12T04:31:23.285Z,2.60
2019-02-12T04:34:10.704Z,2.60
2019-02-12T04:36:57.791Z,2.50
2019-02-12T04:39:45.409Z,2.50
2019-02-12T04:42:32.758Z,2.50
2019-02-12T04:45:20.557Z,2.40
2019-02-12T04:48:07.826Z,2.50
2019-02-12T04:50:55.443Z,2.50
2019-02-12T04:53:42.902Z,2.40
2019-02-12T04:56:30.789Z,2.50
2019-02-12T04:59:18.868Z,2.40
2019-02-12T05:02:06.073Z,2.40
2019-02-12T05:04:53.563Z,2.40
2019-02-12T05:07:41.147Z,2.40
2019-02-12T05:10:30.611Z,2.40
2019-02-12T05:13:18.251Z,2.40
2019-02-12T05:16:06.177Z,2.40
2019-02-12T05:18:53.507Z,2.40
2019-02-12T05:21:40.822Z,2.40
2019-02-12T05:24:28.011Z,2.40
2019-02-12T05:27:15.402Z,2.40
2019-02-12T05:30:02.985Z,2.40
2019-02-12T05:32:50.350Z,2.40
2019-02-12T05:35:43.534Z,2.50
2019-02-12T05:38:45.785Z,2.40
2019-02-12T05:41:45.107Z,2.40
2019-02-12T05:44:43.293Z,2.40
2019-02-12T05:47:36.924Z,2.30
2019-02-12T05:50:24.797Z,2.40
2019-02-12T05:53:14.458Z,2.40
2019-02-12T05:56:05.873Z,2.40
2019-02-12T05:58:54.836Z,2.40
2019-02-12T06:01:46.876Z,2.40
2019-02-12T06:04:36.567Z,2.50
2019-02-12T06:07:24.214Z,2.50
2019-02-12T06:10:11.759Z,2.40
2019-02-12T06:12:59.101Z,2.50
2019-02-12T06:15:46.198Z,2.50
2019-02-12T06:18:33.624Z,2.40
2019-02-12T06:21:20.655Z,2.40
2019-02-12T06:24:07.744Z,2.20
2019-02-12T06:26:55.548Z,2.20
2019-02-12T06:29:42.866Z,2.00
2019-02-12T06:32:30.458Z,2.10
2019-02-12T06:35:17.831Z,2.00
2019-02-12T06:38:05.720Z,1.90
2019-02-12T06:40:53.047Z,1.90
2019-02-12T06:43:40.176Z,1.90
2019-02-12T06:46:29.468Z,1.90
2019-02-12T06:49:17.324Z,1.90
2019-02-12T06:52:04.778Z,1.90
2019-02-12T06:54:52.092Z,1.90
2019-02-12T06:57:40.455Z,1.90
2019-02-12T07:00:27.549Z,1.80
2019-02-12T07:03:20.111Z,1.90
2019-02-12T07:06:11.569Z,1.90
2019-02-12T07:09:08.667Z,1.80
2019-02-12T07:12:45.424Z,1.80
2019-02-12T07:16:09.261Z,2.00
2019-02-12T07:19:27.317Z,2.10
2019-02-12T07:22:52.846Z,2.10
2019-02-12T07:26:10.918Z,2.10
2019-02-12T07:29:13.290Z,2.20
2019-02-12T07:32:22.942Z,2.30
2019-02-12T07:35:18.418Z,2.30
2019-02-12T07:38:41.434Z,2.40
2019-02-12T07:41:54.902Z,2.40
2019-02-12T07:44:51.744Z,2.40
2019-02-12T07:48:17.977Z,2.50
2019-02-12T07:51:38.337Z,2.50
2019-02-12T07:54:51.620Z,2.60
2019-02-12T07:58:16.241Z,2.60
2019-02-12T08:01:29.392Z,2.70
2019-02-12T08:04:56.220Z,2.80
2019-02-12T08:08:02.188Z,2.90
2019-02-12T08:11:16.989Z,3.00
2019-02-12T08:14:48.775Z,3.00
2019-02-12T08:17:55.131Z,3.10
2019-02-12T08:21:18.926Z,3.30
2019-02-12T08:24:51.646Z,3.30
2019-02-12T08:28:15.251Z,3.30
2019-02-12T08:31:40.923Z,3.50
2019-02-12T08:35:07.544Z,3.60
2019-02-12T08:38:35.341Z,3.60
2019-02-12T08:41:53.503Z,3.80
2019-02-12T08:45:19.424Z,3.80
2019-02-12T08:48:38.424Z,4.10
2019-02-12T08:51:49.642Z,4.70
2019-02-12T08:55:13.649Z,4.60
2019-02-12T08:58:33.463Z,5.00
2019-02-12T09:01:35.967Z,5.20
2019-02-12T09:04:53.724Z,5.20
2019-02-12T09:08:04.891Z,5.20
2019-02-12T09:11:57.977Z,5.50
2019-02-12T09:15:04.778Z,5.20
2019-02-12T09:18:39.557Z,5.30
2019-02-12T09:21:39.359Z,5.30
2019-02-12T09:25:02.539Z,5.20
2019-02-12T09:28:14.462Z,5.50
2019-02-12T09:31:41.305Z,5.50
2019-02-12T09:35:14.642Z,5.60
2019-02-12T09:38:39.373Z,5.20
2019-02-12T09:41:52.202Z,5.10
2019-02-12T09:44:57.894Z,5.10
2019-02-12T09:48:34.548Z,4.90
2019-02-12T09:51:53.481Z,5.00
2019-02-12T09:54:55.336Z,5.40
2019-02-12T09:58:35.048Z,5.90
2019-02-12T10:01:51.302Z,5.90
2019-02-12T10:05:15.840Z,5.70
2019-02-12T10:08:33.282Z,6.00
2019-02-12T10:11:55.754Z,5.80
2019-02-12T10:15:36.023Z,5.80
2019-02-12T10:19:01.884Z,5.80
2019-02-12T10:22:33.228Z,5.80
2019-02-12T10:25:39.602Z,5.90
2019-02-12T10:29:11.751Z,6.00
2019-02-12T10:31:58.061Z,6.00
2019-02-12T10:34:45.665Z,5.90
2019-02-12T10:37:33.266Z,5.80
2019-02-12T10:40:20.606Z,5.60
2019-02-12T10:43:07.811Z,5.40
2019-02-12T10:45:55.641Z,5.50
2019-02-12T10:48:43.428Z,5.50
2019-02-12T10:51:31.539Z,5.50
2019-02-12T10:54:27.631Z,5.60
2019-02-12T10:57:08.757Z,5.30
2019-02-12T10:59:56.209Z,5.40
2019-02-12T11:02:44.154Z,5.40
2019-02-12T11:05:31.820Z,5.40
2019-02-12T11:08:19.616Z,5.50
2019-02-12T11:11:07.233Z,5.70
2019-02-12T11:13:54.618Z,5.90
2019-02-12T11:16:42.379Z,5.90
2019-02-12T11:19:29.837Z,5.90
2019-02-12T11:22:17.084Z,5.90
2019-02-12T11:25:05.335Z,5.80
2019-02-12T11:27:52.741Z,5.90
2019-02-12T11:30:39.997Z,6.60
2019-02-12T11:33:27.698Z,7.10
2019-02-12T11:36:15.542Z,7.10
2019-02-12T11:39:03.233Z,7.00
2019-02-12T11:41:50.369Z,7.00
2019-02-12T11:44:37.987Z,6.90
2019-02-12T11:47:25.581Z,6.10
2019-02-12T11:50:13.049Z,6.20
2019-02-12T11:53:00.363Z,6.40
2019-02-12T11:55:47.648Z,6.40
2019-02-12T11:58:35.405Z,6.50
2019-02-12T12:01:25.964Z,6.20
2019-02-12T12:04:13.259Z,6.20
2019-02-12T12:07:00.689Z,6.20
2019-02-12T12:09:48.012Z,6.30
2019-02-12T12:12:35.227Z,5.80
2019-02-12T12:15:22.596Z,6.00
2019-02-12T12:18:10.555Z,5.80
2019-02-12T12:20:57.989Z,5.90
2019-02-12T12:23:45.752Z,6.10
2019-02-12T12:26:33.746Z,6.00
2019-02-12T12:29:21.461Z,5.80
2019-02-12T12:32:08.627Z,5.80
2019-02-12T12:34:59.157Z,5.70
2019-02-12T12:37:45.323Z,5.70
2019-02-12T12:40:32.961Z,5.80
2019-02-12T12:43:20.361Z,5.80
2019-02-12T12:46:07.864Z,5.90
2019-02-12T12:48:55.874Z,5.90
2019-02-12T12:51:43.243Z,5.90
2019-02-12T12:54:31.598Z,6.10
2019-02-12T12:57:19.010Z,6.00
2019-02-12T13:00:08.730Z,6.00
2019-02-12T13:02:56.378Z,5.80
2019-02-12T13:05:44.617Z,5.80
2019-02-12T13:08:32.008Z,5.60
2019-02-12T13:11:19.079Z,5.50
2019-02-12T13:14:06.627Z,5.70
2019-02-12T13:16:54.265Z,5.80
2019-02-12T13:19:41.702Z,5.90
2019-02-12T13:22:28.964Z,6.10
2019-02-12T13:25:16.634Z,6.20
2019-02-12T13:28:03.827Z,6.50
2019-02-12T13:30:51.035Z,6.20
2019-02-12T13:33:38.334Z,6.10
2019-02-12T13:36:25.927Z,6.40
2019-02-12T13:39:13.898Z,6.20
2019-02-12T13:42:01.316Z,6.30
2019-02-12T13:44:48.622Z,6.30
2019-02-12T13:47:36.013Z,6.10
2019-02-12T13:50:23.743Z,6.40
2019-02-12T13:53:11.214Z,6.50
2019-02-12T13:55:58.726Z,6.80
2019-02-12T13:58:46.001Z,7.00
2019-02-12T14:01:33.613Z,7.00
2019-02-12T14:04:21.155Z,7.40
2019-02-12T14:07:08.904Z,7.30
2019-02-12T14:09:56.246Z,7.10
2019-02-12T14:12:44.006Z,6.80
2019-02-12T14:15:32.027Z,6.70
2019-02-12T14:18:19.605Z,6.70
2019-02-12T14:21:06.740Z,6.40
2019-02-12T14:23:54.061Z,6.30
2019-02-12T14:26:41.378Z,6.10
2019-02-12T14:29:28.501Z,5.90
2019-02-12T14:32:15.628Z,5.70
2019-02-12T14:35:03.461Z,5.60
2019-02-12T14:37:51.071Z,5.80
2019-02-12T14:40:38.255Z,5.80
2019-02-12T14:43:25.667Z,6.00
2019-02-12T14:46:12.750Z,6.00
2019-02-12T14:49:00.277Z,6.00
2019-02-12T14:51:48.050Z,6.00
2019-02-12T14:54:35.332Z,6.00
2019-02-12T14:57:23.493Z,6.10
2019-02-12T15:00:12.609Z,6.00
2019-02-12T15:03:00.618Z,5.70
2019-02-12T15:05:48.125Z,5.80
2019-02-12T15:08:35.240Z,6.00
2019-02-12T15:11:22.654Z,6.00
2019-02-12T15:14:10.253Z,5.90
2019-02-12T15:16:57.434Z,6.00
2019-02-12T15:19:45.101Z,6.00
2019-02-12T15:22:32.923Z,6.00
2019-02-12T15:25:20.516Z,6.00
2019-02-12T15:28:07.965Z,6.20
2019-02-12T15:30:55.626Z,6.60
2019-02-12T15:33:42.690Z,6.70
2019-02-12T15:36:29.936Z,6.70
2019-02-12T15:39:17.508Z,6.60
2019-02-12T15:42:05.739Z,6.20
2019-02-12T15:44:53.526Z,6.00
2019-02-12T15:47:41.385Z,5.80
2019-02-12T15:50:29.035Z,5.70
2019-02-12T15:53:16.469Z,5.70
2019-02-12T15:56:04.246Z,5.60
2019-02-12T15:58:52.184Z,5.30
2019-02-12T16:01:40.899Z,5.20
2019-02-12T16:04:29.241Z,5.20
2019-02-12T16:07:16.669Z,5.10
2019-02-12T16:10:04.676Z,5.20
2019-02-12T16:12:51.980Z,5.20
2019-02-12T16:15:39.471Z,5.20
2019-02-12T16:18:26.560Z,5.10
2019-02-12T16:21:14.050Z,5.10
2019-02-12T16:24:01.746Z,5.00
2019-02-12T16:26:49.253Z,5.00
2019-02-12T16:29:36.826Z,5.00
2019-02-12T16:32:23.985Z,5.00
2019-02-12T16:35:12.957Z,5.00
2019-02-12T16:38:00.938Z,4.90
2019-02-12T16:40:48.828Z,4.90
2019-02-12T16:43:36.428Z,5.00
2019-02-12T16:46:24.569Z,4.90
2019-02-12T16:49:12.230Z,5.00
2019-02-12T16:51:59.853Z,5.00
2019-02-12T16:54:47.733Z,4.80
2019-02-12T16:57:35.463Z,4.70
2019-02-12T17:00:23.202Z,4.70
2019-02-12T17:03:10.813Z,4.70
2019-02-12T17:05:58.720Z,4.70
2019-02-12T17:08:46.569Z,4.70
2019-02-12T17:11:34.132Z,4.60
2019-02-12T17:14:21.765Z,4.70
2019-02-12T17:17:09.001Z,4.60
2019-02-12T17:19:57.460Z,4.60
2019-02-12T17:22:45.190Z,4.70
2019-02-12T17:25:32.354Z,4.50
2019-02-12T17:28:19.622Z,4.30
2019-02-12T17:31:06.893Z,4.20
2019-02-12T17:33:54.083Z,4.20
2019-02-12T17:36:41.211Z,4.00
2019-02-12T17:39:28.339Z,4.00
2019-02-12T17:42:15.462Z,3.90
2019-02-12T17:45:03.196Z,3.90
2019-02-12T17:47:50.651Z,4.00
2019-02-12T17:50:39.257Z,3.90
2019-02-12T17:53:29.999Z,3.70
2019-02-12T17:56:24.705Z,3.70
2019-02-12T17:59:09.018Z,3.60
2019-02-12T18:01:56.442Z,3.50
2019-02-12T18:04:46.745Z,3.30
2019-02-12T18:07:34.100Z,3.20
2019-02-12T18:10:23.103Z,3.10
2019-02-12T18:13:12.833Z,2.90
2019-02-12T18:16:00.369Z,2.80
2019-02-12T18:18:50.413Z,2.90
2019-02-12T18:21:37.838Z,2.70
2019-02-12T18:24:26.059Z,2.60
2019-02-12T18:27:13.422Z,2.50
2019-02-12T18:30:01.127Z,2.30
2019-02-12T18:32:49.473Z,2.10
2019-02-12T18:35:37.202Z,2.10
2019-02-12T18:38:25.840Z,2.10
2019-02-12T18:41:14.096Z,2.00
2019-02-12T18:44:02.144Z,1.90
2019-02-12T18:46:50.260Z,1.80
2019-02-12T18:49:38.524Z,1.70
2019-02-12T18:52:29.945Z,1.70
2019-02-12T18:55:18.266Z,1.60
2019-02-12T18:58:06.525Z,1.50
2019-02-12T19:00:54.590Z,1.50
2019-02-12T19:03:42.727Z,1.40
2019-02-12T19:06:31.482Z,1.30
2019-02-12T19:09:19.716Z,1.30
2019-02-12T19:12:07.763Z,1.30
2019-02-12T19:14:56.036Z,1.20
2019-02-12T19:17:47.728Z,1.10
2019-02-12T19:20:35.756Z,0.90
2019-02-12T19:23:25.143Z,0.90
2019-02-12T19:26:13.987Z,0.90
2019-02-12T19:29:06.015Z,0.90
2019-02-12T19:31:59.293Z,1.00
2019-02-12T19:34:51.406Z,0.80
2019-02-12T19:37:40.496Z,0.70
2019-02-12T19:40:33.052Z,0.80
2019-02-12T19:43:22.293Z,0.90
2019-02-12T19:46:10.722Z,1.00
2019-02-12T19:48:59.131Z,1.10
2019-02-12T19:51:49.355Z,1.10
2019-02-12T19:54:37.652Z,1.20
2019-02-12T19:57:25.999Z,1.20
2019-02-12T20:00:17.873Z,1.30
2019-02-12T20:03:05.752Z,1.30
2019-02-12T20:05:53.155Z,1.30
2019-02-12T20:08:40.530Z,1.40
2019-02-12T20:11:27.940Z,1.40
2019-02-12T20:14:15.714Z,1.40
2019-02-12T20:17:03.225Z,1.30
2019-02-12T20:19:50.307Z,1.40
2019-02-12T20:22:38.353Z,1.50
2019-02-12T20:25:26.454Z,1.70
2019-02-12T20:28:14.536Z,1.50
2019-02-12T20:31:03.068Z,1.40
2019-02-12T20:33:56.943Z,1.40
2019-02-12T20:36:40.385Z,1.40
2019-02-12T20:39:28.224Z,1.30
2019-02-12T20:42:15.942Z,1.20
2019-02-12T20:45:04.801Z,1.20
2019-02-12T20:47:52.761Z,1.20
2019-02-12T20:50:41.098Z,1.10
2019-02-12T20:53:29.343Z,1.10
2019-02-12T20:56:17.176Z,0.90
2019-02-12T20:59:05.729Z,0.90
2019-02-12T21:01:53.372Z,0.90
2019-02-12T21:04:41.261Z,0.70
2019-02-12T21:07:32.028Z,0.70
2019-02-12T21:10:19.828Z,0.60
2019-02-12T21:13:08.019Z,0.60
2019-02-12T21:15:56.558Z,0.60
2019-02-12T21:18:44.470Z,0.70
2019-02-12T21:21:32.465Z,0.70
2019-02-12T21:24:20.530Z,0.80
2019-02-12T21:27:08.464Z,0.80
2019-02-12T21:29:55.773Z,0.80
2019-02-12T21:32:43.907Z,1.10
2019-02-12T21:35:31.639Z,1.40
2019-02-12T21:38:20.398Z,1.40
2019-02-12T21:41:08.344Z,1.50
2019-02-12T21:43:55.989Z,1.50
2019-02-12T21:46:44.452Z,1.40
2019-02-12T21:49:32.501Z,1.40
2019-02-12T21:52:20.216Z,1.40
2019-02-12T21:55:09.061Z,1.50
2019-02-12T21:57:56.157Z,1.60
2019-02-12T22:00:49.028Z,1.60
2019-02-12T22:03:37.724Z,1.50
2019-02-12T22:06:26.572Z,1.50
2019-02-12T22:09:17.574Z,1.50
2019-02-12T22:12:12.688Z,1.50
2019-02-12T22:15:04.207Z,1.50
2019-02-12T22:17:53.680Z,1.50
2019-02-12T22:20:42.424Z,1.40
2019-02-12T22:23:30.003Z,1.30
2019-02-12T22:26:17.179Z,1.40
2019-02-12T22:29:06.315Z,1.30
2019-02-12T22:31:53.646Z,1.50
2019-02-12T22:34:41.190Z,1.40
2019-02-12T22:37:28.929Z,1.30
2019-02-12T22:40:16.815Z,1.30
2019-02-12T22:43:04.468Z,1.30
2019-02-12T22:45:51.846Z,1.20
2019-02-12T22:48:39.226Z,1.10
2019-02-12T22:51:26.556Z,0.90
2019-02-12T22:54:13.974Z,0.70
2019-02-12T22:57:02.490Z,0.50
2019-02-12T22:59:50.187Z,0.40
2019-02-12T23:02:37.613Z,0.30
2019-02-12T23:05:25.606Z,0.30
2019-02-12T23:08:13.309Z,0.40
2019-02-12T23:11:00.686Z,0.30
2019-02-12T23:13:48.283Z,0.20
2019-02-12T23:16:35.820Z,0.10
2019-02-12T23:19:23.469Z,0.00
2019-02-12T23:22:11.025Z,-0.10
2019-02-12T23:24:58.550Z,0.10
2019-02-12T23:27:46.201Z,0.20
2019-02-12T23:30:33.971Z,0.20
2019-02-12T23:33:21.307Z,0.10
2019-02-12T23:36:08.881Z,0.00
2019-02-12T23:38:56.810Z,-0.10
2019-02-12T23:41:44.644Z,-0.20
2019-02-12T23:44:32.781Z,-0.20
2019-02-12T23:47:20.589Z,-0.30
2019-02-12T23:50:07.976Z,-0.40
2019-02-12T23:52:55.186Z,-0.60
2019-02-12T23:55:42.586Z,-0.70
2019-02-12T23:58:29.953Z,-0.70
